createdAt,value
2022-09-03T04:35:13.782Z,99.20
2022-09-03T04:43:06.084Z,99.40
2022-09-03T04:51:41.706Z,99.30
2022-09-03T05:02:55.026Z,99.40
2022-09-03T05:14:29.638Z,99.50
2022-09-03T05:25:34.076Z,99.90
2022-09-03T06:27:57.214Z,98.30
2022-09-03T07:39:25.944Z,96.80
2022-09-03T08:11:17.358Z,94.60
2022-09-03T08:13:57.786Z,93.60
2022-09-03T08:17:44.734Z,92.20
2022-09-03T08:20:26.172Z,93.00
2022-09-03T08:32:08.657Z,93.20
2022-09-03T08:43:06.791Z,91.10
2022-09-03T08:46:15.091Z,91.50
2022-09-03T08:52:51.038Z,90.50
2022-09-03T08:56:21.631Z,91.20
2022-09-03T09:03:42.541Z,89.90
2022-09-03T09:19:55.792Z,89.30
2022-09-03T09:23:41.872Z,84.00
2022-09-03T09:26:56.762Z,81.90
2022-09-03T09:48:02.824Z,55.50
2022-09-03T09:50:31.359Z,58.50
2022-09-03T09:53:21.800Z,58.00
2022-09-03T09:56:00.534Z,58.90
2022-09-03T10:03:56.150Z,61.40
2022-09-03T10:09:07.197Z,62.80
2022-09-03T10:15:37.478Z,66.10
2022-09-03T10:18:44.662Z,68.30
2022-09-03T10:26:12.499Z,69.00
2022-09-03T10:29:26.239Z,67.80
2022-09-03T10:36:45.749Z,71.50
2022-09-03T10:44:09.982Z,70.30
2022-09-03T10:46:53.666Z,63.80
2022-09-03T10:50:40.986Z,67.60
2022-09-03T10:53:55.553Z,67.80
2022-09-03T11:01:02.673Z,69.00
2022-09-03T11:03:49.573Z,69.20
2022-09-03T11:06:23.735Z,69.60
2022-09-03T11:09:04.339Z,68.30
2022-09-03T11:12:36.906Z,68.30
2022-09-03T11:19:52.864Z,69.60
2022-09-03T11:22:47.744Z,68.90
2022-09-03T11:30:42.753Z,66.40
2022-09-03T11:33:17.339Z,69.80
2022-09-03T11:36:24.724Z,63.80
2022-09-03T11:40:00.013Z,64.00
2022-09-03T11:43:23.673Z,66.00
2022-09-03T11:46:59.497Z,67.00
2022-09-03T11:50:06.462Z,65.00
2022-09-03T11:56:19.800Z,65.50
2022-09-03T11:59:02.924Z,66.70
2022-09-03T12:01:35.584Z,67.60
2022-09-03T12:04:43.796Z,66.80
2022-09-03T12:08:22.059Z,66.80
2022-09-03T12:11:14.742Z,66.80
2022-09-03T12:15:01.584Z,66.20
2022-09-03T12:22:19.919Z,65.40
2022-09-03T12:32:52.603Z,65.30
2022-09-03T12:35:58.733Z,64.60
2022-09-03T12:46:45.484Z,65.50
2022-09-03T12:49:48.586Z,65.70
2022-09-03T12:52:47.409Z,65.70
2022-09-03T12:55:38.538Z,65.70
2022-09-03T13:02:46.391Z,65.90
2022-09-03T13:05:19.612Z,65.70
2022-09-03T13:08:18.747Z,65.20
2022-09-03T13:19:07.690Z,62.60
2022-09-03T13:22:22.556Z,61.80
2022-09-03T13:25:17.170Z,62.50
2022-09-03T13:28:52.522Z,62.10
2022-09-03T13:32:42.477Z,62.60
2022-09-03T13:35:44.950Z,63.30
2022-09-03T13:46:45.973Z,63.60
2022-09-03T14:02:34.780Z,63.50
2022-09-03T14:06:31.378Z,62.90
2022-09-03T14:13:53.781Z,63.20
2022-09-03T14:21:31.672Z,61.60
2022-09-03T14:29:32.427Z,61.90
2022-09-03T15:17:31.910Z,64.30
2022-09-03T15:45:43.986Z,66.00
2022-09-03T16:18:06.606Z,69.20
2022-09-03T16:25:24.637Z,70.70
2022-09-03T16:28:41.867Z,70.00
2022-09-03T16:31:48.501Z,70.50
2022-09-03T16:41:38.567Z,72.20
2022-09-03T16:44:41.064Z,72.30
2022-09-03T16:47:28.195Z,72.30
2022-09-03T16:50:34.460Z,72.60
2022-09-03T16:56:45.820Z,73.30
2022-09-03T16:59:52.027Z,73.70
2022-09-03T17:03:00.038Z,73.90
2022-09-03T17:06:01.364Z,74.10
2022-09-03T17:09:03.494Z,74.80
2022-09-03T17:12:21.914Z,74.60
2022-09-03T17:16:01.837Z,74.90
2022-09-03T17:18:54.134Z,75.30
2022-09-03T17:21:50.327Z,75.20
2022-09-03T17:24:52.990Z,76.00
2022-09-03T17:28:01.645Z,76.00
2022-09-03T17:30:55.234Z,76.10
2022-09-03T17:33:58.224Z,76.10
2022-09-03T17:36:48.490Z,76.50
2022-09-03T17:40:21.748Z,76.60
2022-09-03T17:43:08.471Z,76.50
2022-09-03T17:46:14.226Z,76.70
2022-09-03T17:49:04.616Z,76.90
2022-09-03T17:51:46.269Z,77.30
2022-09-03T17:55:10.996Z,77.20
2022-09-03T17:57:47.043Z,77.40
2022-09-03T18:00:28.009Z,77.50
2022-09-03T18:03:03.880Z,77.80
2022-09-03T18:05:48.881Z,78.00
2022-09-03T18:08:37.781Z,78.50
2022-09-03T18:11:15.297Z,78.60
2022-09-03T18:14:01.295Z,78.80
2022-09-03T18:16:33.539Z,78.80
2022-09-03T18:19:07.999Z,78.90
2022-09-03T18:25:07.639Z,79.00
2022-09-03T18:27:59.156Z,79.40
2022-09-03T18:30:46.770Z,79.50
2022-09-03T18:33:36.329Z,79.20
2022-09-03T18:36:24.504Z,79.40
2022-09-03T18:39:11.380Z,79.90
2022-09-03T18:42:22.153Z,80.00
2022-09-03T18:45:22.516Z,80.40
2022-09-03T18:48:24.905Z,80.40
2022-09-03T18:51:19.339Z,80.40
2022-09-03T18:54:16.741Z,80.60
2022-09-03T18:57:18.894Z,80.90
2022-09-03T19:04:10.553Z,82.30
2022-09-03T19:07:09.948Z,82.00
2022-09-03T19:10:11.705Z,82.30
2022-09-03T19:13:38.143Z,82.40
2022-09-03T19:16:42.458Z,83.20
2022-09-03T19:19:57.789Z,82.80
2022-09-03T19:22:51.689Z,83.20
2022-09-03T19:25:39.962Z,83.00
2022-09-03T19:28:36.194Z,82.60
2022-09-03T19:35:26.113Z,83.20
2022-09-03T19:38:24.287Z,83.70
2022-09-03T19:41:32.039Z,83.10
2022-09-03T19:44:39.098Z,83.80
2022-09-03T19:47:38.915Z,84.10
2022-09-03T19:50:51.904Z,84.10
2022-09-03T19:53:55.531Z,84.70
2022-09-03T19:57:23.594Z,85.00
2022-09-03T20:01:25.134Z,85.90
2022-09-03T20:04:21.934Z,85.00
2022-09-03T20:07:55.825Z,86.10
2022-09-03T20:11:28.122Z,85.30
2022-09-03T20:14:33.179Z,85.60
2022-09-03T20:17:13.887Z,85.50
2022-09-03T20:20:42.803Z,86.80
2022-09-03T20:23:59.387Z,87.80
2022-09-03T20:26:43.289Z,87.40
2022-09-03T20:29:43.415Z,88.20
2022-09-03T20:32:19.036Z,89.10
2022-09-03T20:35:03.460Z,88.90
2022-09-03T20:37:52.743Z,88.40
2022-09-03T20:40:56.521Z,88.20
2022-09-03T20:44:03.222Z,89.50
2022-09-03T20:47:06.090Z,89.60
2022-09-03T20:49:55.183Z,90.10
2022-09-03T20:53:02.409Z,90.20
2022-09-03T20:56:18.273Z,89.80
2022-09-03T20:59:05.929Z,90.30
2022-09-03T21:01:55.971Z,90.90
2022-09-03T21:04:48.450Z,91.50
2022-09-03T21:07:37.540Z,91.70
2022-09-03T21:10:20.696Z,91.60
2022-09-03T21:13:25.962Z,91.40
2022-09-03T21:16:32.201Z,92.10
2022-09-03T21:19:22.031Z,92.40
2022-09-03T21:22:14.265Z,92.60
2022-09-03T21:25:36.273Z,92.80
2022-09-03T21:28:41.933Z,92.80
2022-09-03T21:35:52.933Z,92.90
2022-09-03T22:04:43.382Z,93.00
2022-09-03T22:08:07.191Z,92.90
2022-09-03T22:11:00.982Z,92.80
2022-09-03T22:13:52.671Z,92.70
2022-09-03T22:16:31.605Z,92.50
2022-09-03T22:35:22.952Z,92.60
2022-09-03T22:38:48.654Z,92.60
2022-09-03T23:10:56.836Z,93.50
2022-09-03T23:28:13.284Z,93.80
